Time;durP1;ratioP1;P1;durP2;ratioP2;P2;SDS_P1;SDS_P2;PMS_P1;PMS_P2;Temp;Humidity;BMP_temperature;BMP_pressure;BME280_temperature;BME280_humidity;BME280_pressure;Samples;Min_cycle;Max_cycle;Signal;HPM_P1;HPM_P2
2021/10/10 00:01:06;;;;;;;0.20;0.20;;;9.30;89.80;8.10;102702.00;;;;31260453;28;20053;-63
2021/10/10 00:16:07;;;;;;;0.45;0.45;;;9.20;89.30;8.10;102706.00;;;;31253716;28;20073;-64
2021/10/10 00:31:14;;;;;;;0.20;0.20;;;9.10;89.10;8.00;102707.00;;;;31263641;28;20049;-64
2021/10/10 00:46:16;;;;;;;0.40;0.40;;;9.00;89.30;7.80;102696.00;;;;31257913;28;20195;-64
2021/10/10 01:01:20;;;;;;;0.70;0.70;;;8.90;90.50;7.70;102691.00;;;;31259877;28;20514;-63
2021/10/10 01:16:21;;;;;;;0.22;0.22;;;8.80;90.30;7.70;102669.00;;;;31251207;28;20113;-63
2021/10/10 01:31:24;;;;;;;0.50;0.50;;;8.80;90.80;7.50;102670.00;;;;31254257;28;20061;-63
2021/10/10 01:46:26;;;;;;;0.20;0.20;;;8.60;90.30;7.40;102656.00;;;;31245101;28;20045;-63
2021/10/10 02:01:28;;;;;;;0.20;0.20;;;8.50;90.60;7.30;102652.00;;;;31253857;28;20042;-63
2021/10/10 02:16:29;;;;;;;0.20;0.20;;;8.40;90.40;7.20;102643.00;;;;31264205;28;20069;-63
2021/10/10 02:31:30;;;;;;;0.30;0.30;;;8.20;90.30;7.00;102628.00;;;;31248476;28;20052;-63
2021/10/10 02:46:32;;;;;;;0.20;0.20;;;8.10;91.30;6.80;102632.00;;;;31243935;28;20049;-62
2021/10/10 03:01:39;;;;;;;0.20;0.20;;;7.90;90.90;6.70;102624.00;;;;31243762;28;20041;-63
2021/10/10 03:16:40;;;;;;;0.30;0.30;;;7.90;90.90;6.70;102611.00;;;;31239299;28;20052;-63
2021/10/10 03:31:41;;;;;;;0.25;0.25;;;7.80;90.60;6.60;102613.00;;;;31247658;28;20045;-62
2021/10/10 03:46:43;;;;;;;0.20;0.20;;;7.70;90.60;6.60;102613.00;;;;31233065;28;20462;-63
2021/10/10 04:01:44;;;;;;;0.20;0.20;;;9.40;92.00;6.40;102619.00;;;;31266062;28;20140;-63
2021/10/10 04:16:45;;;;;;;0.20;0.20;;;7.60;90.70;6.30;102620.00;;;;31262689;28;20057;-63
2021/10/10 04:31:48;;;;;;;0.27;0.27;;;7.40;91.00;6.20;102607.00;;;;31263339;28;20142;-63
2021/10/10 04:46:50;;;;;;;2.88;2.72;;;7.30;91.00;6.10;102610.00;;;;31258379;28;20060;-63
2021/10/10 05:02:18;;;;;;;0.30;0.30;;;7.30;91.10;6.00;102606.00;;;;31254573;28;20052;-63
2021/10/10 05:17:19;;;;;;;0.20;0.20;;;7.20;90.60;5.90;102618.00;;;;31255206;28;20056;-63
2021/10/10 05:32:22;;;;;;;0.20;0.20;;;7.10;90.70;5.90;102604.00;;;;31259102;28;20530;-62
2021/10/10 05:47:24;;;;;;;0.20;0.20;;;7.00;90.70;5.80;102602.00;;;;31242778;28;20049;-63
2021/10/10 06:02:31;;;;;;;0.20;0.20;;;7.00;90.80;5.70;102615.00;;;;31243988;28;20632;-63
2021/10/10 06:17:34;;;;;;;0.13;0.13;;;6.90;91.10;5.80;102633.00;;;;31254989;28;20049;-63
2021/10/10 06:32:35;;;;;;;0.30;0.30;;;7.10;91.40;5.90;102618.00;;;;31252984;28;20041;-62
2021/10/10 06:47:36;;;;;;;0.20;0.20;;;7.30;91.90;6.20;102633.00;;;;31249129;28;20057;-63
2021/10/10 07:02:42;;;;;;;0.30;0.30;;;7.70;91.70;6.70;102630.00;;;;31237255;28;20136;-63
2021/10/10 07:17:43;;;;;;;0.37;0.37;;;8.00;91.60;7.30;102629.00;;;;31234969;28;20045;-63
2021/10/10 07:32:47;;;;;;;0.30;0.30;;;8.70;91.80;8.00;102618.00;;;;31264929;28;20042;-62
2021/10/10 07:47:50;;;;;;;0.45;0.45;;;8.90;90.70;8.60;102609.00;;;;31246844;28;20045;-63
2021/10/10 08:02:57;;;;;;;0.22;0.22;;;9.80;90.30;9.00;102618.00;;;;31248157;28;20140;-63
2021/10/10 08:17:58;;;;;;;3.95;1.58;;;10.10;90.40;9.40;102642.00;;;;31221068;28;20087;-61
2021/10/10 08:33:01;;;;;;;0.32;0.32;;;10.40;90.00;9.80;102674.00;;;;31256075;28;20041;-61
2021/10/10 08:48:03;;;;;;;0.38;0.38;;;11.20;90.10;10.20;102667.00;;;;31258504;28;20168;-61
2021/10/10 09:03:12;;;;;;;0.20;0.20;;;11.20;89.80;10.60;102687.00;;;;31269172;28;20041;-61
2021/10/10 09:18:14;;;;;;;0.30;0.30;;;11.70;88.30;11.30;102696.00;;;;31249642;28;20053;-62
2021/10/10 09:33:42;;;;;;;0.10;0.10;;;12.50;90.50;11.70;102683.00;;;;31252446;28;21019;-62
2021/10/10 09:48:44;;;;;;;0.20;0.20;;;12.70;87.10;12.10;102693.00;;;;31253978;28;20701;-62
2021/10/10 10:04:07;;;;;;;0.43;0.43;;;13.10;86.50;12.40;102664.00;;;;31254022;28;20188;-62
2021/10/10 10:19:19;;;;;;;0.20;0.20;;;13.20;86.20;12.60;102655.00;;;;31251787;28;20045;-62
2021/10/10 10:34:31;;;;;;;0.40;0.40;;;13.70;85.70;13.10;102656.00;;;;31244913;28;20029;-62
2021/10/10 10:50:32;;;;;;;0.88;0.88;;;14.30;84.40;13.60;102684.00;;;;31233730;28;20069;-63
2021/10/10 11:05:34;;;;;;;1.98;0.82;;;14.40;84.20;14.20;102681.00;;;;31237404;28;20188;-63
2021/10/10 11:20:36;;;;;;;0.30;0.30;;;15.10;80.60;14.60;102694.00;;;;31238835;28;20726;-62
2021/10/10 11:35:44;;;;;;;0.30;0.30;;;15.70;80.60;15.10;102683.00;;;;31250808;28;20045;-62
2021/10/10 11:50:47;;;;;;;0.40;0.40;;;16.00;78.60;15.50;102663.00;;;;31236776;28;20041;-62
2021/10/10 12:05:48;;;;;;;0.63;0.63;;;16.40;77.70;16.00;102651.00;;;;31232098;28;20052;-62
2021/10/10 12:21:18;;;;;;;2.08;0.80;;;16.50;78.60;16.00;102646.00;;;;31255116;28;20046;-62
2021/10/10 12:36:19;;;;;;;0.70;0.70;;;16.80;72.90;16.20;102627.00;;;;31260611;28;20608;-63
2021/10/10 12:51:20;;;;;;;0.20;0.20;;;17.10;73.10;16.50;102609.00;;;;31247433;28;20133;-63
2021/10/10 13:06:21;;;;;;;0.63;0.63;;;17.10;72.80;16.40;102625.00;;;;31249022;28;20331;-63
2021/10/10 13:21:22;;;;;;;0.30;0.30;;;17.20;69.00;16.50;102619.00;;;;31248173;28;20128;-62
2021/10/10 13:36:24;;;;;;;1.42;1.33;;;17.10;69.10;16.50;102611.00;;;;31250486;28;20090;-62
2021/10/10 13:51:25;;;;;;;0.75;0.75;;;16.60;68.20;16.70;102596.00;;;;31244170;28;20053;-63
2021/10/10 14:06:27;;;;;;;0.98;0.98;;;17.40;69.60;16.60;102594.00;;;;31233792;28;20056;-63
2021/10/10 14:21:28;;;;;;;0.50;0.50;;;17.30;68.60;15.90;102588.00;;;;31236869;28;20382;-63
2021/10/10 14:36:29;;;;;;;0.30;0.30;;;16.90;69.80;16.10;102594.00;;;;31237076;28;20166;-63
2021/10/10 14:51:31;;;;;;;0.63;0.63;;;16.60;71.20;15.60;102578.00;;;;31233008;28;20048;-63
2021/10/10 15:06:34;;;;;;;0.88;0.88;;;16.30;72.80;15.30;102567.00;;;;31231258;28;20119;-63
2021/10/10 15:21:35;;;;;;;1.53;1.53;;;16.10;73.30;15.20;102568.00;;;;31298756;28;20051;-63
2021/10/10 15:36:36;;;;;;;0.20;0.20;;;16.10;73.90;15.40;102558.00;;;;31336702;28;20036;-64
2021/10/10 15:51:37;;;;;;;0.30;0.30;;;16.10;73.60;15.20;102563.00;;;;31364089;28;20045;-63
2021/10/10 16:06:39;;;;;;;0.95;0.95;;;16.00;74.40;14.90;102549.00;;;;31371513;28;20450;-64
2021/10/10 16:21:40;;;;;;;0.13;0.13;;;15.80;75.40;14.60;102548.00;;;;31350146;28;20407;-64
2021/10/10 16:36:46;;;;;;;0.30;0.30;;;15.00;80.50;14.10;102543.00;;;;31360615;28;20132;-63
2021/10/10 16:51:50;;;;;;;0.63;0.60;;;14.80;80.40;13.40;102559.00;;;;31334367;28;20080;-66
2021/10/10 17:06:59;;;;;;;0.47;0.47;;;14.30;81.50;12.90;102553.00;;;;31370942;28;20133;-63
2021/10/10 17:22:00;;;;;;;0.22;0.22;;;14.00;82.40;12.60;102571.00;;;;31353721;28;20068;-63
2021/10/10 17:37:03;;;;;;;0.10;0.10;;;13.50;83.80;12.50;102563.00;;;;31341434;28;20048;-63
2021/10/10 17:52:09;;;;;;;0.30;0.30;;;13.30;84.90;12.40;102550.00;;;;31360190;28;20690;-64
2021/10/10 18:23:12;;;;;;;0.10;0.10;;;13.30;85.30;12.20;102573.00;;;;31340751;28;20541;-63
2021/10/10 18:38:19;;;;;;;0.20;0.20;;;13.00;85.90;12.00;102571.00;;;;31315893;28;20055;-63
2021/10/10 18:53:20;;;;;;;0.35;0.35;;;12.90;85.80;11.70;102570.00;;;;31329850;28;20139;-63
2021/10/10 19:08:21;;;;;;;0.10;0.10;;;12.70;86.80;11.40;102571.00;;;;31348523;28;20041;-63
2021/10/10 19:23:23;;;;;;;0.10;0.10;;;12.40;87.60;11.30;102565.00;;;;31370529;28;20043;-63
2021/10/10 19:38:34;;;;;;;0.28;0.28;;;12.10;87.80;11.00;102555.00;;;;31392913;28;20048;-63
2021/10/10 19:53:35;;;;;;;2.75;0.75;;;12.10;87.40;10.80;102577.00;;;;31361584;28;20072;-64
2021/10/10 20:08:50;;;;;;;0.20;0.20;;;11.90;89.20;10.90;102579.00;;;;31386928;28;20474;-64
2021/10/10 20:23:52;;;;;;;0.13;0.13;;;13.60;89.80;11.00;102567.00;;;;31387124;28;20090;-63
2021/10/10 20:38:55;;;;;;;0.20;0.20;;;12.10;88.50;11.00;102591.00;;;;31363634;28;20040;-63
2021/10/10 20:53:56;;;;;;;0.20;0.20;;;12.10;90.00;11.10;102586.00;;;;31382399;28;20053;-64
2021/10/10 21:08:57;;;;;;;0.20;0.20;;;13.30;90.50;11.30;102589.00;;;;31392196;28;20060;-63
2021/10/10 21:23:59;;;;;;;0.35;0.35;;;12.20;91.00;11.40;102588.00;;;;31401867;28;20694;-64
2021/10/10 21:39:00;;;;;;;0.20;0.20;;;12.40;90.50;11.40;102580.00;;;;31347088;28;20694;-63
2021/10/10 21:54:14;;;;;;;0.65;0.65;;;13.50;89.90;11.50;102576.00;;;;31353606;28;20040;-63
2021/10/10 22:09:24;;;;;;;0.40;0.40;;;12.50;91.30;11.60;102569.00;;;;31364576;28;20140;-62
2021/10/10 22:39:27;;;;;;;0.20;0.20;;;15.00;91.70;11.70;102570.00;;;;31241998;28;20572;-62
2021/10/10 22:54:28;;;;;;;0.20;0.20;;;12.60;91.30;11.80;102564.00;;;;31247247;28;20955;-63
2021/10/10 23:09:29;;;;;;;0.27;0.27;;;12.70;92.40;11.90;102554.00;;;;31251281;28;20053;-63
2021/10/10 23:24:30;;;;;;;0.30;0.30;;;12.80;92.70;12.10;102537.00;;;;31212001;28;20289;-64
2021/10/10 23:39:31;;;;;;;0.93;0.93;;;13.00;93.00;12.20;102543.00;;;;31236598;28;20057;-63
2021/10/10 23:54:32;;;;;;;1.03;0.93;;;13.70;95.50;12.20;102548.00;;;;31225776;28;20095;-64
